createdAt,value
2019-02-25T00:00:35.094Z,2.40
2019-02-25T00:03:03.553Z,2.40
2019-02-25T00:05:30.123Z,2.50
2019-02-25T00:07:56.674Z,2.50
2019-02-25T00:10:23.219Z,2.40
2019-02-25T00:12:49.746Z,2.40
2019-02-25T00:15:16.399Z,2.50
2019-02-25T00:17:43.089Z,2.60
2019-02-25T00:20:10.854Z,2.60
2019-02-25T00:22:37.514Z,2.60
2019-02-25T00:25:07.038Z,2.70
2019-02-25T00:27:33.581Z,2.60
2019-02-25T00:30:00.296Z,2.70
2019-02-25T00:32:26.884Z,2.70
2019-02-25T00:34:53.446Z,2.70
2019-02-25T00:37:20.005Z,2.70
2019-02-25T00:39:46.530Z,2.70
2019-02-25T00:42:13.073Z,2.80
2019-02-25T00:44:39.610Z,2.80
2019-02-25T00:47:06.453Z,2.90
2019-02-25T00:49:33.172Z,2.90
2019-02-25T00:51:59.725Z,3.00
2019-02-25T00:54:26.304Z,2.90
2019-02-25T00:56:52.873Z,2.70
2019-02-25T00:59:19.438Z,2.80
2019-02-25T01:01:46.062Z,2.80
2019-02-25T01:04:12.618Z,2.70
2019-02-25T01:06:39.265Z,2.70
2019-02-25T01:09:06.032Z,2.80
2019-02-25T01:11:33.998Z,2.80
2019-02-25T01:14:00.557Z,2.80
2019-02-25T01:16:27.073Z,2.80
2019-02-25T01:18:53.620Z,3.00
2019-02-25T01:21:20.240Z,2.90
2019-02-25T01:23:48.983Z,2.90
2019-02-25T01:26:15.598Z,2.90
2019-02-25T01:28:42.139Z,2.90
2019-02-25T01:31:09.682Z,2.80
2019-02-25T01:33:36.219Z,2.80
2019-02-25T01:36:02.901Z,2.80
2019-02-25T01:38:29.426Z,2.80
2019-02-25T01:40:55.978Z,2.60
2019-02-25T01:43:22.537Z,2.60
2019-02-25T01:45:49.069Z,2.70
2019-02-25T01:48:15.616Z,2.80
2019-02-25T01:50:42.168Z,2.70
2019-02-25T01:53:08.800Z,2.70
2019-02-25T01:55:35.467Z,2.70
2019-02-25T01:58:02.126Z,2.80
2019-02-25T02:00:28.740Z,2.80
2019-02-25T02:02:55.326Z,2.70
2019-02-25T02:05:21.985Z,2.80
2019-02-25T02:07:48.549Z,2.80
2019-02-25T02:10:15.913Z,2.80
2019-02-25T02:12:42.682Z,2.90
2019-02-25T02:15:14.873Z,2.70
2019-02-25T02:17:42.525Z,2.80
2019-02-25T02:20:11.284Z,2.90
2019-02-25T02:22:37.915Z,2.90
2019-02-25T02:25:06.401Z,2.90
2019-02-25T02:27:32.932Z,2.90
2019-02-25T02:29:59.481Z,2.90
2019-02-25T02:32:26.036Z,2.90
2019-02-25T02:34:52.600Z,2.90
2019-02-25T02:37:19.160Z,2.90
2019-02-25T02:39:45.728Z,2.90
2019-02-25T02:42:14.281Z,2.80
2019-02-25T02:44:42.610Z,2.90
2019-02-25T02:47:27.828Z,2.80
2019-02-25T02:49:55.349Z,2.90
2019-02-25T02:52:21.896Z,2.90
2019-02-25T02:54:48.531Z,2.90
2019-02-25T02:57:15.179Z,2.90
2019-02-25T02:59:41.723Z,2.90
2019-02-25T03:02:08.288Z,2.90
2019-02-25T03:04:34.807Z,2.90
2019-02-25T03:07:01.346Z,2.90
2019-02-25T03:09:27.985Z,2.80
2019-02-25T03:11:54.535Z,2.80
2019-02-25T03:14:21.095Z,2.80
2019-02-25T03:16:47.647Z,2.80
2019-02-25T03:19:14.370Z,2.80
2019-02-25T03:21:40.925Z,2.80
2019-02-25T03:24:08.489Z,2.70
2019-02-25T03:26:35.128Z,2.70
2019-02-25T03:29:01.740Z,2.70
2019-02-25T03:31:28.294Z,2.70
2019-02-25T03:33:54.867Z,2.70
2019-02-25T03:36:21.414Z,2.60
2019-02-25T03:38:47.961Z,2.60
2019-02-25T03:41:14.527Z,2.70
2019-02-25T03:43:41.187Z,2.80
2019-02-25T03:46:07.935Z,2.70
2019-02-25T03:48:34.697Z,2.70
2019-02-25T03:51:01.441Z,2.80
2019-02-25T03:53:28.211Z,2.90
2019-02-25T03:55:54.981Z,2.90
2019-02-25T03:58:21.744Z,2.80
2019-02-25T04:00:48.451Z,2.80
2019-02-25T04:03:15.155Z,2.80
2019-02-25T04:05:41.897Z,2.80
2019-02-25T04:08:08.847Z,2.70
2019-02-25T04:10:36.484Z,2.70
2019-02-25T04:13:04.417Z,2.70
2019-02-25T04:15:37.842Z,2.70
2019-02-25T04:18:04.576Z,2.70
2019-02-25T04:20:31.525Z,2.70
2019-02-25T04:22:59.566Z,2.70
2019-02-25T04:25:27.996Z,2.70
2019-02-25T04:27:54.735Z,2.60
2019-02-25T04:30:21.489Z,2.50
2019-02-25T04:32:48.163Z,2.50
2019-02-25T04:35:15.016Z,2.60
2019-02-25T04:37:41.859Z,2.80
2019-02-25T04:40:11.391Z,2.80
2019-02-25T04:42:38.243Z,2.80
2019-02-25T04:45:13.475Z,2.80
2019-02-25T04:47:40.837Z,2.60
2019-02-25T04:50:09.197Z,2.70
2019-02-25T04:52:37.653Z,2.60
2019-02-25T04:55:08.269Z,2.60
2019-02-25T04:57:35.017Z,2.50
2019-02-25T05:00:09.783Z,2.60
2019-02-25T05:02:36.810Z,2.60
2019-02-25T05:05:05.121Z,2.70
2019-02-25T05:07:33.556Z,2.80
2019-02-25T05:09:59.991Z,2.80
2019-02-25T05:12:26.411Z,2.80
2019-02-25T05:14:52.894Z,2.80
2019-02-25T05:17:19.297Z,2.70
2019-02-25T05:19:45.744Z,2.60
2019-02-25T05:22:12.191Z,2.60
2019-02-25T05:24:38.619Z,2.60
2019-02-25T05:27:05.059Z,2.70
2019-02-25T05:29:31.506Z,2.80
2019-02-25T05:31:57.935Z,2.70
2019-02-25T05:34:24.369Z,2.80
2019-02-25T05:36:50.945Z,2.70
2019-02-25T05:39:17.363Z,2.70
2019-02-25T05:41:43.807Z,2.80
2019-02-25T05:44:10.250Z,2.80
2019-02-25T05:46:37.689Z,2.70
2019-02-25T05:49:04.150Z,2.70
2019-02-25T05:51:30.594Z,2.70
2019-02-25T05:53:57.024Z,2.70
2019-02-25T05:56:23.484Z,2.80
2019-02-25T05:58:49.932Z,2.70
2019-02-25T06:01:16.382Z,2.80
2019-02-25T06:03:42.852Z,2.90
2019-02-25T06:06:09.294Z,2.90
2019-02-25T06:08:36.809Z,2.90
2019-02-25T06:11:03.229Z,2.80
2019-02-25T06:13:29.670Z,2.60
2019-02-25T06:15:57.079Z,2.50
2019-02-25T06:18:23.528Z,2.70
2019-02-25T06:20:50.102Z,2.80
2019-02-25T06:23:16.537Z,2.80
2019-02-25T06:25:43.970Z,2.80
2019-02-25T06:28:10.428Z,2.70
2019-02-25T06:30:36.951Z,2.70
2019-02-25T06:33:03.427Z,2.70
2019-02-25T06:35:29.834Z,2.90
2019-02-25T06:37:56.280Z,3.00
2019-02-25T06:40:22.743Z,3.00
2019-02-25T06:42:50.295Z,3.10
2019-02-25T06:45:19.840Z,3.10
2019-02-25T06:47:46.416Z,3.10
2019-02-25T06:50:13.061Z,3.20
2019-02-25T06:52:39.473Z,3.20
2019-02-25T06:55:14.349Z,3.20
2019-02-25T06:57:40.881Z,3.20
2019-02-25T07:00:14.581Z,3.30
2019-02-25T07:02:41.261Z,3.30
2019-02-25T07:05:13.072Z,3.20
2019-02-25T07:07:53.428Z,3.30
2019-02-25T07:10:39.684Z,3.40
2019-02-25T07:13:08.048Z,3.40
2019-02-25T07:15:52.731Z,3.50
2019-02-25T07:18:27.247Z,3.60
2019-02-25T07:20:55.572Z,3.70
2019-02-25T07:23:23.925Z,3.70
2019-02-25T07:25:55.233Z,3.60
2019-02-25T07:28:23.581Z,3.80
2019-02-25T07:30:54.930Z,3.80
2019-02-25T07:33:28.989Z,3.90
2019-02-25T07:35:57.342Z,3.90
2019-02-25T07:38:25.685Z,3.80
2019-02-25T07:41:09.212Z,3.70
2019-02-25T07:43:52.745Z,3.80
2019-02-25T07:46:21.088Z,4.00
2019-02-25T07:48:55.485Z,4.00
2019-02-25T07:51:40.421Z,4.10
2019-02-25T07:54:09.772Z,4.10
2019-02-25T07:56:41.204Z,4.20
2019-02-25T07:59:18.384Z,4.20
2019-02-25T08:02:03.390Z,4.20
2019-02-25T08:04:31.777Z,4.10
2019-02-25T08:07:03.159Z,4.20
2019-02-25T08:09:31.504Z,4.30
2019-02-25T08:12:05.975Z,4.50
2019-02-25T08:14:53.232Z,4.40
2019-02-25T08:17:21.553Z,4.40
2019-02-25T08:20:02.832Z,4.70
2019-02-25T08:22:31.149Z,4.70
2019-02-25T08:24:59.499Z,4.80
2019-02-25T08:27:36.844Z,4.80
2019-02-25T08:30:20.280Z,4.70
2019-02-25T08:32:51.738Z,5.00
2019-02-25T08:36:01.416Z,4.90
2019-02-25T08:38:46.433Z,5.00
2019-02-25T08:41:32.328Z,5.50
2019-02-25T08:44:00.687Z,5.50
2019-02-25T08:46:29.153Z,5.50
2019-02-25T08:49:01.360Z,5.50
2019-02-25T08:51:27.901Z,5.80
2019-02-25T08:53:54.344Z,6.00
2019-02-25T08:56:21.913Z,6.40
2019-02-25T08:58:48.430Z,6.70
2019-02-25T09:01:15.545Z,6.90
2019-02-25T09:03:43.229Z,7.30
2019-02-25T09:06:09.821Z,7.70
2019-02-25T09:08:36.377Z,7.90
2019-02-25T09:11:02.927Z,7.90
2019-02-25T09:13:30.550Z,8.10
2019-02-25T09:15:56.985Z,8.10
2019-02-25T09:18:23.466Z,8.60
2019-02-25T09:20:49.879Z,8.80
2019-02-25T09:23:16.307Z,9.00
2019-02-25T09:25:42.764Z,9.10
2019-02-25T09:28:10.165Z,9.40
2019-02-25T09:30:36.687Z,9.60
2019-02-25T09:33:03.224Z,9.60
2019-02-25T09:35:29.750Z,9.70
2019-02-25T09:37:56.209Z,10.00
2019-02-25T09:40:22.652Z,10.20
2019-02-25T09:42:49.095Z,10.50
2019-02-25T09:45:16.354Z,10.80
2019-02-25T09:47:42.927Z,11.30
2019-02-25T09:50:13.998Z,10.90
2019-02-25T09:52:40.576Z,10.90
2019-02-25T09:55:09.253Z,10.80
2019-02-25T09:57:35.706Z,10.50
2019-02-25T10:00:02.964Z,10.70
2019-02-25T10:02:31.105Z,10.90
2019-02-25T10:04:57.553Z,10.90
2019-02-25T10:07:24.035Z,11.00
2019-02-25T10:09:50.494Z,11.40
2019-02-25T10:12:16.925Z,11.30
2019-02-25T10:14:43.483Z,11.70
2019-02-25T10:17:09.930Z,11.60
2019-02-25T10:19:36.370Z,11.10
2019-02-25T10:22:02.962Z,10.80
2019-02-25T10:24:29.413Z,10.90
2019-02-25T10:26:56.866Z,11.10
2019-02-25T10:29:23.314Z,11.60
2019-02-25T10:31:49.780Z,11.70
2019-02-25T10:34:17.948Z,11.20
2019-02-25T10:36:46.011Z,11.00
2019-02-25T10:39:13.118Z,11.10
2019-02-25T10:41:40.973Z,10.80
2019-02-25T10:44:08.482Z,10.90
2019-02-25T10:46:36.067Z,11.00
2019-02-25T10:49:11.148Z,11.10
2019-02-25T10:51:31.053Z,11.10
2019-02-25T10:53:57.546Z,11.40
2019-02-25T10:56:27.685Z,11.60
2019-02-25T10:58:54.235Z,11.80
2019-02-25T11:01:22.318Z,12.40
2019-02-25T11:03:49.975Z,12.50
2019-02-25T11:06:17.524Z,13.00
2019-02-25T11:08:46.331Z,13.30
2019-02-25T11:11:18.812Z,13.50
2019-02-25T11:13:45.927Z,13.70
2019-02-25T11:16:14.002Z,13.60
2019-02-25T11:18:41.879Z,12.70
2019-02-25T11:21:08.870Z,12.60
2019-02-25T11:23:36.568Z,12.20
2019-02-25T11:26:03.075Z,13.00
2019-02-25T11:28:31.656Z,13.80
2019-02-25T11:30:58.107Z,13.70
2019-02-25T11:33:25.252Z,13.80
2019-02-25T11:35:52.893Z,14.80
2019-02-25T11:38:19.362Z,15.20
2019-02-25T11:40:45.884Z,14.50
2019-02-25T11:43:13.265Z,15.30
2019-02-25T11:45:40.674Z,16.60
2019-02-25T11:48:07.132Z,18.20
2019-02-25T11:50:33.602Z,21.80
2019-02-25T11:53:00.049Z,24.30
2019-02-25T11:55:26.683Z,25.80
2019-02-25T11:57:53.146Z,27.30
2019-02-25T12:00:22.765Z,25.80
2019-02-25T12:02:49.248Z,26.70
2019-02-25T12:05:16.900Z,27.70
2019-02-25T12:07:43.458Z,27.20
2019-02-25T12:10:12.900Z,26.10
2019-02-25T12:12:39.346Z,27.50
2019-02-25T12:15:09.509Z,29.80
2019-02-25T12:17:37.039Z,28.50
2019-02-25T12:20:05.478Z,28.60
2019-02-25T12:22:31.925Z,31.70
2019-02-25T12:24:58.385Z,29.10
2019-02-25T12:27:24.811Z,27.20
2019-02-25T12:29:51.289Z,24.30
2019-02-25T12:32:17.705Z,27.20
2019-02-25T12:34:44.148Z,27.60
2019-02-25T12:37:10.615Z,23.80
2019-02-25T12:39:37.068Z,26.40
2019-02-25T12:42:03.618Z,26.50
2019-02-25T12:44:30.075Z,29.10
2019-02-25T12:46:56.497Z,30.40
2019-02-25T12:49:22.968Z,29.90
2019-02-25T12:51:49.413Z,32.10
2019-02-25T12:54:15.864Z,31.90
2019-02-25T12:56:42.398Z,30.70
2019-02-25T12:59:08.867Z,31.80
2019-02-25T13:01:35.354Z,28.40
2019-02-25T13:04:01.876Z,28.90
2019-02-25T13:06:28.269Z,30.80
2019-02-25T13:08:54.706Z,30.50
2019-02-25T13:11:21.182Z,28.40
2019-02-25T13:13:47.639Z,27.40
2019-02-25T13:16:14.113Z,24.70
2019-02-25T13:18:40.768Z,27.20
2019-02-25T13:21:07.330Z,28.60
2019-02-25T13:23:33.774Z,28.50
2019-02-25T13:26:07.269Z,28.40
2019-02-25T13:28:30.649Z,22.50
2019-02-25T13:30:58.490Z,24.50
2019-02-25T13:33:25.043Z,23.70
2019-02-25T13:35:51.485Z,26.10
2019-02-25T13:38:17.937Z,25.20
2019-02-25T13:40:44.393Z,25.20
2019-02-25T13:43:10.853Z,24.90
2019-02-25T13:45:37.296Z,25.90
2019-02-25T13:48:03.838Z,25.50
2019-02-25T13:50:30.577Z,24.90
2019-02-25T13:52:57.133Z,25.90
2019-02-25T13:55:23.586Z,25.40
2019-02-25T13:57:50.032Z,24.50
2019-02-25T14:00:22.454Z,26.90
2019-02-25T14:02:49.000Z,26.00
2019-02-25T14:05:15.561Z,26.60
2019-02-25T14:07:42.081Z,25.70
2019-02-25T14:10:12.301Z,23.50
2019-02-25T14:12:38.832Z,25.10
2019-02-25T14:15:07.481Z,24.70
2019-02-25T14:17:34.332Z,23.50
2019-02-25T14:20:00.997Z,24.50
2019-02-25T14:22:27.454Z,23.90
2019-02-25T14:24:53.912Z,20.00
2019-02-25T14:27:20.493Z,17.10
2019-02-25T14:29:48.773Z,17.30
2019-02-25T14:32:15.586Z,19.90
2019-02-25T14:34:44.375Z,19.70
2019-02-25T14:37:11.039Z,20.70
2019-02-25T14:39:38.272Z,20.50
2019-02-25T14:42:06.831Z,20.40
2019-02-25T14:44:35.834Z,20.40
2019-02-25T14:47:05.279Z,18.80
2019-02-25T14:49:32.740Z,20.50
2019-02-25T14:51:59.655Z,19.50
2019-02-25T14:54:26.738Z,19.50
2019-02-25T14:56:54.844Z,19.70
2019-02-25T14:59:22.672Z,18.50
2019-02-25T15:01:49.124Z,15.60
2019-02-25T15:04:15.564Z,14.70
2019-02-25T15:06:42.002Z,13.50
2019-02-25T15:09:11.923Z,13.30
2019-02-25T15:11:37.948Z,13.40
2019-02-25T15:14:05.930Z,13.10
2019-02-25T15:16:32.709Z,13.10
2019-02-25T15:19:00.620Z,12.80
2019-02-25T15:21:27.393Z,12.50
2019-02-25T15:23:54.045Z,12.40
2019-02-25T15:26:21.621Z,12.30
2019-02-25T15:28:51.677Z,12.00
2019-02-25T15:31:17.443Z,12.00
2019-02-25T15:33:44.012Z,11.90
2019-02-25T15:36:11.520Z,12.00
2019-02-25T15:38:39.228Z,11.80
2019-02-25T15:41:09.029Z,11.90
2019-02-25T15:43:35.300Z,12.00
2019-02-25T15:46:01.820Z,11.90
2019-02-25T15:48:29.042Z,11.70
2019-02-25T15:50:58.605Z,11.40
2019-02-25T15:53:25.552Z,11.60
2019-02-25T15:55:52.427Z,11.40
2019-02-25T15:58:19.149Z,11.30
2019-02-25T16:00:46.289Z,11.10
2019-02-25T16:03:13.691Z,11.00
2019-02-25T16:05:42.475Z,11.10
2019-02-25T16:08:10.484Z,10.90
2019-02-25T16:10:37.227Z,10.90
2019-02-25T16:13:05.978Z,10.70
2019-02-25T16:15:32.450Z,10.50
2019-02-25T16:17:59.223Z,10.50
2019-02-25T16:20:27.052Z,10.50
2019-02-25T16:22:56.271Z,10.40
2019-02-25T16:25:23.122Z,10.40
2019-02-25T16:27:52.204Z,10.20
2019-02-25T16:30:21.336Z,10.10
2019-02-25T16:32:48.413Z,10.10
2019-02-25T16:35:15.093Z,10.20
2019-02-25T16:37:42.710Z,10.00
2019-02-25T16:40:17.626Z,9.90
2019-02-25T16:42:44.371Z,9.90
2019-02-25T16:45:32.407Z,9.90
2019-02-25T16:47:55.217Z,9.80
2019-02-25T16:50:23.274Z,9.80
2019-02-25T16:52:49.902Z,9.60
2019-02-25T16:55:22.720Z,9.60
2019-02-25T16:57:50.171Z,9.40
2019-02-25T17:00:29.994Z,9.40
2019-02-25T17:03:01.368Z,9.40
2019-02-25T17:05:26.395Z,9.20
2019-02-25T17:07:53.154Z,9.10
2019-02-25T17:10:24.093Z,8.90
2019-02-25T17:12:50.030Z,8.80
2019-02-25T17:15:18.921Z,8.80
2019-02-25T17:17:45.670Z,8.50
2019-02-25T17:20:14.214Z,8.40
2019-02-25T17:22:40.739Z,8.50
2019-02-25T17:25:11.979Z,8.50
2019-02-25T17:27:38.922Z,8.50
2019-02-25T17:30:17.454Z,8.40
2019-02-25T17:32:46.116Z,8.30
2019-02-25T17:35:14.584Z,8.20
2019-02-25T17:37:41.355Z,8.10
2019-02-25T17:40:15.717Z,8.10
2019-02-25T17:42:42.407Z,7.90
2019-02-25T17:45:12.098Z,7.80
2019-02-25T17:47:39.670Z,7.60
2019-02-25T17:50:12.230Z,7.60
2019-02-25T17:52:40.463Z,7.40
2019-02-25T17:55:13.718Z,7.60
2019-02-25T17:57:40.309Z,7.40
2019-02-25T18:00:13.320Z,7.40
2019-02-25T18:02:41.089Z,7.40
2019-02-25T18:05:07.758Z,7.20
2019-02-25T18:07:37.633Z,7.10
2019-02-25T18:10:09.837Z,6.90
2019-02-25T18:12:38.642Z,6.90
2019-02-25T18:15:24.155Z,6.80
2019-02-25T18:17:51.480Z,6.80
2019-02-25T18:20:21.447Z,6.80
2019-02-25T18:22:50.801Z,6.80
2019-02-25T18:25:18.476Z,6.70
2019-02-25T18:27:47.809Z,6.60
2019-02-25T18:30:16.004Z,6.60
2019-02-25T18:32:42.869Z,6.50
2019-02-25T18:35:11.771Z,6.40
2019-02-25T18:37:39.713Z,6.40
2019-02-25T18:40:11.670Z,6.20
2019-02-25T18:42:40.749Z,6.00
2019-02-25T18:45:11.615Z,5.90
2019-02-25T18:47:39.548Z,5.80
2019-02-25T18:50:15.399Z,5.70
2019-02-25T18:52:40.932Z,5.70
2019-02-25T18:55:11.142Z,5.60
2019-02-25T18:57:37.925Z,5.60
2019-02-25T19:00:08.194Z,5.60
2019-02-25T19:02:38.022Z,5.40
2019-02-25T19:05:07.140Z,5.40
2019-02-25T19:07:34.316Z,5.40
2019-02-25T19:10:00.859Z,5.50
2019-02-25T19:12:27.620Z,5.50
2019-02-25T19:14:55.765Z,5.50
2019-02-25T19:17:23.166Z,5.00
2019-02-25T19:19:51.643Z,4.70
2019-02-25T19:22:19.536Z,4.70
2019-02-25T19:24:47.250Z,4.70
2019-02-25T19:27:14.414Z,4.50
2019-02-25T19:29:40.959Z,4.60
2019-02-25T19:32:07.643Z,4.60
2019-02-25T19:34:34.083Z,4.20
2019-02-25T19:37:02.357Z,4.30
2019-02-25T19:39:29.346Z,4.40
2019-02-25T19:41:56.766Z,4.40
2019-02-25T19:44:24.344Z,4.40
2019-02-25T19:46:53.160Z,4.50
2019-02-25T19:49:20.676Z,4.40
2019-02-25T19:51:47.989Z,4.40
2019-02-25T19:54:16.795Z,4.30
2019-02-25T19:56:45.587Z,4.00
2019-02-25T19:59:12.105Z,3.90
2019-02-25T20:01:39.444Z,3.70
2019-02-25T20:04:07.036Z,3.50
2019-02-25T20:06:34.330Z,3.60
2019-02-25T20:09:04.473Z,3.60
2019-02-25T20:11:32.933Z,3.60
2019-02-25T20:14:01.557Z,3.60
2019-02-25T20:16:29.822Z,3.60
2019-02-25T20:18:58.024Z,3.60
2019-02-25T20:21:26.659Z,3.50
2019-02-25T20:23:55.894Z,3.30
2019-02-25T20:26:24.247Z,3.40
2019-02-25T20:28:50.747Z,3.40
2019-02-25T20:31:17.304Z,3.40
2019-02-25T20:33:43.757Z,3.20
2019-02-25T20:36:10.211Z,3.30
2019-02-25T20:38:37.191Z,3.40
2019-02-25T20:41:05.383Z,3.50
2019-02-25T20:43:32.529Z,3.50
2019-02-25T20:46:01.115Z,3.40
2019-02-25T20:48:27.596Z,3.30
2019-02-25T20:50:54.195Z,3.30
2019-02-25T20:53:20.773Z,3.20
2019-02-25T20:55:50.690Z,3.10
2019-02-25T20:58:18.731Z,3.10
2019-02-25T21:00:46.610Z,2.80
2019-02-25T21:03:16.143Z,2.90
2019-02-25T21:05:42.446Z,2.70
2019-02-25T21:08:09.021Z,2.60
2019-02-25T21:10:35.793Z,2.70
2019-02-25T21:13:02.467Z,2.60
2019-02-25T21:15:28.857Z,2.40
2019-02-25T21:17:57.691Z,2.40
2019-02-25T21:20:26.219Z,2.40
2019-02-25T21:22:52.824Z,2.40
2019-02-25T21:25:24.430Z,2.40
2019-02-25T21:27:49.005Z,2.40
2019-02-25T21:30:19.279Z,2.40
2019-02-25T21:32:47.407Z,2.50
2019-02-25T21:35:17.842Z,2.40
2019-02-25T21:37:47.316Z,2.30
2019-02-25T21:40:20.102Z,2.30
2019-02-25T21:42:49.274Z,2.20
2019-02-25T21:45:17.993Z,2.10
2019-02-25T21:47:43.867Z,2.10
2019-02-25T21:50:12.443Z,2.10
2019-02-25T21:52:41.688Z,2.20
2019-02-25T21:55:11.526Z,2.20
2019-02-25T21:57:38.034Z,2.10
2019-02-25T22:00:10.313Z,2.00
2019-02-25T22:02:39.226Z,1.90
2019-02-25T22:05:09.828Z,1.80
2019-02-25T22:07:36.080Z,1.80
2019-02-25T22:10:13.836Z,1.90
2019-02-25T22:12:42.153Z,2.00
2019-02-25T22:15:12.942Z,2.00
2019-02-25T22:17:40.779Z,1.90
2019-02-25T22:20:13.925Z,1.60
2019-02-25T22:22:40.345Z,1.50
2019-02-25T22:25:11.796Z,1.70
2019-02-25T22:27:41.254Z,1.60
2019-02-25T22:30:11.689Z,1.60
2019-02-25T22:32:39.033Z,1.60
2019-02-25T22:35:10.054Z,1.20
2019-02-25T22:37:36.787Z,1.50
2019-02-25T22:40:10.297Z,1.70
2019-02-25T22:42:37.823Z,1.70
2019-02-25T22:45:09.522Z,1.90
2019-02-25T22:47:36.131Z,1.90
2019-02-25T22:50:06.436Z,1.70
2019-02-25T22:52:35.575Z,1.40
2019-02-25T22:55:05.927Z,1.40
2019-02-25T22:57:30.451Z,1.50
2019-02-25T22:59:56.901Z,1.40
2019-02-25T23:02:27.317Z,1.40
2019-02-25T23:04:53.619Z,1.40
2019-02-25T23:07:20.678Z,1.60
2019-02-25T23:09:49.962Z,1.70
2019-02-25T23:12:17.936Z,1.80
2019-02-25T23:14:45.180Z,1.70
2019-02-25T23:17:13.577Z,1.60
2019-02-25T23:19:40.940Z,1.60
2019-02-25T23:22:08.144Z,1.50
2019-02-25T23:24:36.931Z,1.40
2019-02-25T23:27:03.150Z,1.40
2019-02-25T23:29:29.589Z,1.50
2019-02-25T23:31:56.173Z,1.50
2019-02-25T23:34:22.830Z,1.40
2019-02-25T23:36:49.799Z,1.50
2019-02-25T23:39:17.855Z,1.40
2019-02-25T23:41:46.227Z,1.30
2019-02-25T23:44:13.266Z,1.50
2019-02-25T23:46:40.748Z,1.50
2019-02-25T23:49:07.172Z,1.50
2019-02-25T23:51:33.612Z,1.60
2019-02-25T23:54:00.052Z,1.70
2019-02-25T23:56:27.446Z,1.80
2019-02-25T23:58:54.752Z,1.80
